Time;durP1;ratioP1;P1;durP2;ratioP2;P2;SDS_P1;SDS_P2;PMS_P1;PMS_P2;Temp;Humidity;BMP_temperature;BMP_pressure;BME280_temperature;BME280_humidity;BME280_pressure;Samples;Min_cycle;Max_cycle;Signal;HPM_P1;HPM_P2
2023/11/29 00:00:22;;;;;;;14.05;8.35;;;;;;;-0.69;100.00;99626.19;6118379;23;20022;-81
2023/11/29 00:02:49;;;;;;;12.60;8.68;;;;;;;-0.68;100.00;99614.19;6104716;23;20022;-81
2023/11/29 00:05:16;;;;;;;12.80;8.07;;;;;;;-0.75;100.00;99615.78;6125926;23;20021;-81
2023/11/29 00:07:44;;;;;;;15.40;8.15;;;;;;;-0.69;100.00;99612.50;6120454;23;20057;-81
2023/11/29 00:10:11;;;;;;;13.27;8.43;;;;;;;-0.86;100.00;99605.31;6103691;23;20060;-78
2023/11/29 00:12:38;;;;;;;14.00;8.15;;;;;;;-0.81;100.00;99600.25;6125479;23;20021;-79
2023/11/29 00:15:06;;;;;;;13.63;7.50;;;;;;;-0.78;100.00;99584.91;6184321;23;20104;-78
2023/11/29 00:17:43;;;;;;;;;;;;;;;;;;;;;
2023/11/29 00:20:11;;;;;;;16.08;9.05;;;;;;;-0.76;100.00;99584.94;6155121;23;20064;-79
2023/11/29 00:22:38;;;;;;;15.43;8.88;;;;;;;-0.75;100.00;99584.09;6125121;23;20025;-79
2023/11/29 00:25:08;;;;;;;15.20;9.50;;;;;;;-0.72;100.00;99584.16;6152446;23;20021;-78
2023/11/29 00:27:36;;;;;;;17.10;10.27;;;;;;;-0.74;100.00;99576.41;6152080;23;20017;-79
2023/11/29 00:30:03;;;;;;;15.20;9.13;;;;;;;-0.73;100.00;99567.88;6123498;23;20040;-79
2023/11/29 00:32:29;;;;;;;14.68;8.80;;;;;;;-0.75;100.00;99573.81;6128523;23;20056;-79
2023/11/29 00:34:58;;;;;;;15.63;9.07;;;;;;;-0.82;100.00;99566.81;6177926;23;20021;-79
2023/11/29 00:37:27;;;;;;;13.48;8.65;;;;;;;-0.81;100.00;99555.69;6150887;23;20031;-81
2023/11/29 00:39:53;;;;;;;14.00;8.82;;;;;;;-0.89;100.00;99560.69;6126009;23;20021;-79
2023/11/29 00:42:21;;;;;;;16.80;10.10;;;;;;;-0.84;100.00;99552.22;6151413;23;20023;-79
2023/11/29 00:44:47;;;;;;;16.48;9.52;;;;;;;-0.90;100.00;99558.94;6101815;23;20049;-78
2023/11/29 00:47:17;;;;;;;15.07;9.18;;;;;;;-1.02;100.00;99549.31;6150408;23;20017;-79
2023/11/29 00:49:43;;;;;;;20.85;9.88;;;;;;;-1.09;100.00;99542.31;6173499;23;20024;-79
2023/11/29 00:52:10;;;;;;;19.42;10.38;;;;;;;-1.12;100.00;99542.25;6151121;23;20017;-78
2023/11/29 00:54:37;;;;;;;17.05;9.35;;;;;;;-1.06;100.00;99538.09;6149056;23;20013;-80
2023/11/29 00:57:07;;;;;;;14.82;8.68;;;;;;;-1.07;100.00;99543.19;6149377;23;20028;-79
2023/11/29 00:59:36;;;;;;;15.52;9.07;;;;;;;-1.09;100.00;99538.03;6146672;23;20525;-79
2023/11/29 01:02:02;;;;;;;14.98;8.95;;;;;;;-1.07;100.00;99528.69;6126433;23;20036;-79
2023/11/29 01:04:31;;;;;;;13.80;9.60;;;;;;;-1.06;100.00;99520.09;6150561;23;20032;-79
2023/11/29 01:06:58;;;;;;;18.35;9.88;;;;;;;-1.11;100.00;99526.00;6149985;23;20024;-79
2023/11/29 01:09:31;;;;;;;15.18;9.85;;;;;;;-1.08;100.00;99515.78;6146705;23;20072;-79
2023/11/29 01:11:58;;;;;;;18.73;8.97;;;;;;;-1.03;100.00;99515.06;6151673;23;20021;-77
2023/11/29 01:14:25;;;;;;;15.18;9.55;;;;;;;-1.05;100.00;99518.44;6151931;23;20025;-78
2023/11/29 01:16:52;;;;;;;15.20;8.90;;;;;;;-1.13;100.00;99514.81;6126738;23;20036;-78
2023/11/29 01:19:23;;;;;;;14.32;8.48;;;;;;;-1.15;100.00;99506.25;6173042;23;20693;-79
2023/11/29 01:21:52;;;;;;;15.60;8.45;;;;;;;-1.17;100.00;99513.91;6151303;23;20040;-81
2023/11/29 01:24:18;;;;;;;15.93;9.73;;;;;;;-1.20;100.00;99511.25;6125750;23;20351;-79
2023/11/29 01:26:45;;;;;;;14.05;8.43;;;;;;;-1.12;100.00;99501.16;6149483;23;20014;-78
2023/11/29 01:29:12;;;;;;;15.52;8.90;;;;;;;-1.19;100.00;99497.59;6123879;23;20044;-79
2023/11/29 01:31:39;;;;;;;15.30;8.93;;;;;;;-1.18;100.00;99495.06;6150041;23;20013;-78
2023/11/29 01:34:12;;;;;;;17.13;8.70;;;;;;;-1.11;100.00;99493.47;6120050;23;20108;-78
2023/11/29 01:36:46;;;;;;;15.05;8.52;;;;;;;-1.11;100.00;99483.19;6125153;23;20108;-80
2023/11/29 01:39:14;;;;;;;15.73;11.00;;;;;;;-1.09;100.00;99488.38;6123073;23;20029;-81
2023/11/29 01:41:47;;;;;;;14.40;9.23;;;;;;;-1.09;100.00;99493.53;6148074;23;20100;-80
2023/11/29 01:44:13;;;;;;;14.35;8.05;;;;;;;-1.17;100.00;99494.22;6124064;23;20111;-79
2023/11/29 01:46:43;;;;;;;16.38;9.20;;;;;;;-1.14;100.00;99496.00;6148629;23;20161;-79
2023/11/29 01:49:13;;;;;;;13.00;7.72;;;;;;;-1.20;100.00;99491.63;6122210;23;20522;-80
2023/11/29 01:51:42;;;;;;;13.30;8.23;;;;;;;-1.15;100.00;99501.09;6148142;23;20458;-80
2023/11/29 01:54:09;;;;;;;16.05;8.77;;;;;;;-1.13;100.00;99496.84;6125007;23;20632;-79
2023/11/29 01:56:35;;;;;;;15.20;7.93;;;;;;;-1.10;100.00;99490.06;6147534;23;20016;-80
2023/11/29 01:59:02;;;;;;;14.27;8.65;;;;;;;-1.07;100.00;99479.88;6147049;23;20290;-80
2023/11/29 02:01:33;;;;;;;16.65;8.60;;;;;;;-1.09;100.00;99470.41;6148579;23;20505;-80
2023/11/29 02:04:02;;;;;;;12.88;7.80;;;;;;;-1.08;100.00;99467.88;6124373;23;20048;-80
2023/11/29 02:06:30;;;;;;;13.68;8.45;;;;;;;-1.00;100.00;99463.72;6148182;23;20039;-81
2023/11/29 02:08:57;;;;;;;14.57;8.60;;;;;;;-1.09;100.00;99455.00;6147450;23;20502;-80
2023/11/29 02:11:26;;;;;;;12.98;9.13;;;;;;;-1.07;100.00;99451.63;6144146;23;20484;-81
2023/11/29 02:13:58;;;;;;;14.68;8.68;;;;;;;-1.03;100.00;99453.41;6143710;23;20032;-80
2023/11/29 02:16:25;;;;;;;16.98;10.07;;;;;;;-1.03;100.00;99455.97;6143549;23;20064;-81
2023/11/29 02:18:54;;;;;;;14.95;9.48;;;;;;;-0.98;100.00;99452.63;6148240;23;20013;-79
2023/11/29 02:21:25;;;;;;;14.77;9.27;;;;;;;-1.00;100.00;99453.44;6151683;23;20096;-80
2023/11/29 02:24:08;;;;;;;14.15;8.98;;;;;;;-1.02;100.00;99452.56;6144315;23;20061;-81
2023/11/29 02:26:35;;;;;;;14.57;8.75;;;;;;;-1.05;100.00;99447.38;6142887;23;20025;-81
2023/11/29 02:29:04;;;;;;;12.93;8.27;;;;;;;-1.03;100.00;99439.69;6117569;23;20025;-81
2023/11/29 02:31:34;;;;;;;15.25;9.40;;;;;;;-1.03;100.00;99438.00;6141615;23;20080;-80
2023/11/29 02:34:03;;;;;;;17.30;8.82;;;;;;;-1.06;100.00;99437.91;6143718;23;20208;-81
2023/11/29 02:36:33;;;;;;;19.67;10.38;;;;;;;-1.04;100.00;99440.53;6114095;23;20104;-82
2023/11/29 02:39:00;;;;;;;14.57;7.80;;;;;;;-1.03;100.00;99444.81;6117293;23;20022;-80
2023/11/29 02:41:30;;;;;;;11.32;7.88;;;;;;;-1.01;100.00;99444.00;6117774;23;20144;-79
2023/11/29 02:44:00;;;;;;;13.70;9.35;;;;;;;-0.97;100.00;99428.66;6145310;23;20018;-80
2023/11/29 02:46:27;;;;;;;15.43;8.73;;;;;;;-0.96;100.00;99431.25;6144100;23;20436;-81
2023/11/29 02:48:55;;;;;;;14.70;9.20;;;;;;;-0.87;100.00;99428.00;6119067;23;20025;-79
2023/11/29 02:51:22;;;;;;;13.57;8.13;;;;;;;-0.84;100.00;99431.47;6120330;23;20017;-80
2023/11/29 02:53:51;;;;;;;15.48;9.18;;;;;;;-0.85;100.00;99428.88;6142223;23;20110;-79
2023/11/29 02:56:17;;;;;;;13.57;8.02;;;;;;;-0.84;100.00;99416.03;6142519;23;20024;-78
2023/11/29 02:58:44;;;;;;;11.07;7.20;;;;;;;-0.79;100.00;99421.28;6117289;23;20025;-78
2023/11/29 03:01:11;;;;;;;16.08;7.63;;;;;;;-0.72;100.00;99420.56;6140649;23;20037;-79
2023/11/29 03:03:37;;;;;;;12.57;8.18;;;;;;;-0.71;100.00;99422.25;6142514;23;20088;-78
2023/11/29 03:06:05;;;;;;;11.05;7.68;;;;;;;-0.67;100.00;99415.47;6143312;23;20041;-81
2023/11/29 03:08:32;;;;;;;15.90;8.80;;;;;;;-0.68;100.00;99414.63;6116932;23;20380;-79
2023/11/29 03:10:59;;;;;;;12.70;7.85;;;;;;;-0.67;100.00;99411.19;6142968;23;20021;-80
2023/11/29 03:13:29;;;;;;;11.38;7.93;;;;;;;-0.60;100.00;99408.72;6118656;23;20473;-79
2023/11/29 03:16:02;;;;;;;11.13;7.07;;;;;;;-0.60;100.00;99396.75;6143506;23;20028;-78
2023/11/29 03:18:32;;;;;;;13.80;7.72;;;;;;;-0.61;100.00;99395.03;6142423;23;20036;-78
2023/11/29 03:20:59;;;;;;;12.50;7.25;;;;;;;-0.59;100.00;99395.03;6144890;23;20021;-78
2023/11/29 03:23:30;;;;;;;11.68;6.75;;;;;;;-0.60;100.00;99386.47;6143894;23;20313;-79
2023/11/29 03:26:00;;;;;;;13.07;7.65;;;;;;;-0.61;100.00;99382.16;6145865;23;20022;-79
2023/11/29 03:28:29;;;;;;;9.73;6.28;;;;;;;-0.68;100.00;99388.03;6142463;23;20024;-79
2023/11/29 03:30:57;;;;;;;9.15;6.75;;;;;;;-0.75;100.00;99379.38;6121382;23;20745;-79
2023/11/29 03:33:24;;;;;;;11.18;7.13;;;;;;;-0.75;100.00;99371.66;6161130;23;20013;-79
2023/11/29 03:35:50;;;;;;;10.23;7.38;;;;;;;-0.74;100.00;99382.81;6156229;23;20025;-80
2023/11/29 03:38:17;;;;;;;10.80;7.28;;;;;;;-0.74;100.00;99370.81;6117614;23;20116;-79
2023/11/29 03:40:44;;;;;;;8.80;5.80;;;;;;;-0.69;100.00;99370.91;6123880;23;20029;-81
2023/11/29 03:43:11;;;;;;;10.68;6.93;;;;;;;-0.69;100.00;99369.19;6147392;23;20040;-79
2023/11/29 03:45:37;;;;;;;11.05;6.95;;;;;;;-0.62;100.00;99366.72;6144625;23;20020;-79
2023/11/29 03:48:04;;;;;;;10.73;7.15;;;;;;;-0.54;100.00;99368.56;6143460;23;20021;-79
2023/11/29 03:50:33;;;;;;;9.48;5.40;;;;;;;-0.53;100.00;99367.72;6143522;23;20100;-79
2023/11/29 03:53:00;;;;;;;11.48;6.53;;;;;;;-0.58;100.00;99353.94;6143743;23;20061;-79
2023/11/29 03:55:27;;;;;;;10.45;6.55;;;;;;;-0.61;100.00;99353.91;6143825;23;20018;-80
2023/11/29 03:57:56;;;;;;;11.93;7.68;;;;;;;-0.57;100.00;99353.09;6144107;23;20025;-79
2023/11/29 04:00:24;;;;;;;17.55;7.60;;;;;;;-0.64;100.00;99347.84;6142676;23;20463;-79
2023/11/29 04:02:51;;;;;;;10.10;6.60;;;;;;;-0.59;100.00;99341.91;6142978;23;20017;-79
2023/11/29 04:05:18;;;;;;;11.35;6.78;;;;;;;-0.63;100.00;99339.28;6143738;23;20069;-81
2023/11/29 04:07:47;;;;;;;10.10;7.07;;;;;;;-0.65;100.00;99336.72;6142423;23;20026;-79
2023/11/29 04:10:14;;;;;;;11.10;7.43;;;;;;;-0.58;100.00;99333.38;6139155;23;20617;-84
2023/11/29 04:12:41;;;;;;;10.77;6.53;;;;;;;-0.70;100.00;99323.78;6118471;23;20048;-77
2023/11/29 04:15:08;;;;;;;9.45;6.07;;;;;;;-0.64;100.00;99312.72;6118570;23;20028;-79
2023/11/29 04:17:34;;;;;;;10.32;6.55;;;;;;;-0.63;100.00;99311.03;6143062;23;20466;-81
2023/11/29 04:20:01;;;;;;;8.18;5.85;;;;;;;-0.62;100.00;99300.75;6141700;23;20013;-79
2023/11/29 04:22:30;;;;;;;6.13;5.50;;;;;;;-0.57;100.00;99304.25;6143011;23;20021;-78
2023/11/29 04:24:57;;;;;;;10.73;5.95;;;;;;;-0.51;100.00;99294.06;6119899;23;20048;-79
2023/11/29 04:27:23;;;;;;;8.60;6.07;;;;;;;-0.52;100.00;99296.63;6145489;23;20080;-78
2023/11/29 04:29:50;;;;;;;7.85;5.10;;;;;;;-0.55;100.00;99291.41;6117305;23;20029;-78
2023/11/29 04:32:16;;;;;;;13.10;6.03;;;;;;;-0.54;100.00;99286.28;6143318;23;20077;-80
2023/11/29 04:34:43;;;;;;;6.93;6.18;;;;;;;-0.49;100.00;99277.81;6143367;23;20017;-79
2023/11/29 04:37:11;;;;;;;9.85;6.68;;;;;;;-0.42;100.00;99275.31;6148639;23;20018;-79
2023/11/29 04:39:38;;;;;;;11.02;6.57;;;;;;;-0.51;100.00;99273.50;6127091;23;20088;-80
2023/11/29 04:42:04;;;;;;;11.88;7.25;;;;;;;-0.48;100.00;99267.53;6146367;23;20025;-79
2023/11/29 04:44:31;;;;;;;10.52;6.75;;;;;;;-0.43;100.00;99273.63;6139392;23;20017;-81
2023/11/29 04:46:57;;;;;;;9.32;6.50;;;;;;;-0.54;100.00;99272.59;6143396;23;20679;-80
2023/11/29 04:49:24;;;;;;;10.90;7.00;;;;;;;-0.50;100.00;99274.34;6143423;23;20035;-79
2023/11/29 04:51:51;;;;;;;11.75;7.80;;;;;;;-0.54;100.00;99280.31;6141564;23;20110;-78
2023/11/29 04:54:18;;;;;;;12.07;7.07;;;;;;;-0.55;100.00;99268.28;6143861;23;20018;-81
2023/11/29 04:56:46;;;;;;;12.77;7.88;;;;;;;-0.50;100.00;99264.06;6142382;23;20025;-79
2023/11/29 04:59:13;;;;;;;11.63;6.72;;;;;;;-0.53;100.00;99258.91;6116915;23;20041;-79
2023/11/29 05:01:42;;;;;;;13.88;8.25;;;;;;;-0.49;100.00;99262.38;6141703;23;20392;-79
2023/11/29 05:04:08;;;;;;;14.82;7.72;;;;;;;-0.44;100.00;99258.13;6118681;23;20018;-79
2023/11/29 05:06:35;;;;;;;16.23;7.35;;;;;;;-0.43;100.00;99254.72;6114217;23;20033;-79
2023/11/29 05:09:05;;;;;;;10.82;7.13;;;;;;;-0.41;100.00;99248.75;6118175;23;20048;-79
2023/11/29 05:11:34;;;;;;;10.13;6.63;;;;;;;-0.39;100.00;99241.06;6144497;23;20021;-82
2023/11/29 05:14:01;;;;;;;13.52;7.82;;;;;;;-0.37;100.00;99237.66;6120877;23;20459;-80
2023/11/29 05:16:28;;;;;;;13.27;7.45;;;;;;;-0.43;100.00;99235.03;6118424;23;20022;-80
2023/11/29 05:18:55;;;;;;;12.88;7.25;;;;;;;-0.39;100.00;99220.50;6123720;23;20332;-80
2023/11/29 05:21:21;;;;;;;11.93;7.15;;;;;;;-0.36;100.00;99225.69;6123918;23;20096;-79
2023/11/29 05:23:48;;;;;;;11.38;6.95;;;;;;;-0.37;100.00;99222.25;6141626;23;20021;-78
2023/11/29 05:26:15;;;;;;;13.13;6.85;;;;;;;-0.39;100.00;99215.34;6115783;23;20619;-78
2023/11/29 05:28:41;;;;;;;12.02;7.13;;;;;;;-0.32;100.00;99214.59;6138570;23;20025;-81
2023/11/29 05:31:08;;;;;;;14.27;8.55;;;;;;;-0.31;100.00;99221.47;6118420;23;20656;-78
2023/11/29 05:33:35;;;;;;;11.43;7.40;;;;;;;-0.27;100.00;99214.66;6142403;23;20045;-80
2023/11/29 05:36:02;;;;;;;14.70;7.90;;;;;;;-0.22;100.00;99215.56;6141201;23;20157;-80
2023/11/29 05:38:29;;;;;;;12.63;7.57;;;;;;;-0.20;100.00;99212.16;6164851;23;20017;-78
2023/11/29 05:40:57;;;;;;;12.18;7.72;;;;;;;-0.20;100.00;99208.72;6140551;23;20032;-79
2023/11/29 05:43:27;;;;;;;12.30;6.53;;;;;;;-0.18;100.00;99204.47;6141269;23;20045;-77
2023/11/29 05:45:55;;;;;;;10.85;6.90;;;;;;;-0.17;100.00;99206.19;6140281;23;20025;-79
2023/11/29 05:48:22;;;;;;;11.90;7.50;;;;;;;-0.17;100.00;99191.63;6138869;23;20290;-78
2023/11/29 05:50:49;;;;;;;13.10;7.18;;;;;;;-0.15;100.00;99189.06;6140787;23;20036;-78
2023/11/29 05:53:17;;;;;;;17.38;8.10;;;;;;;-0.19;100.00;99189.88;6116270;23;20056;-78
2023/11/29 05:55:44;;;;;;;14.13;7.47;;;;;;;-0.12;100.00;99199.38;6115134;23;20018;-77
2023/11/29 05:58:11;;;;;;;11.85;7.13;;;;;;;-0.10;100.00;99197.69;6139672;23;20117;-77
2023/11/29 06:00:40;;;;;;;13.55;6.55;;;;;;;-0.08;100.00;99188.31;6142155;23;20620;-78
2023/11/29 06:03:10;;;;;;;11.13;6.07;;;;;;;-0.07;100.00;99182.28;6140553;23;20029;-79
2023/11/29 06:05:37;;;;;;;8.75;6.50;;;;;;;-0.07;100.00;99186.59;6115325;23;20763;-78
2023/11/29 06:08:04;;;;;;;14.68;7.57;;;;;;;-0.01;100.00;99191.81;6140527;23;20056;-78
2023/11/29 06:10:30;;;;;;;19.60;7.45;;;;;;;0.05;100.00;99191.84;6137815;23;20799;-79
2023/11/29 06:12:58;;;;;;;9.25;6.40;;;;;;;0.06;100.00;99192.72;6141936;23;20029;-79
2023/11/29 06:15:25;;;;;;;8.75;5.90;;;;;;;0.06;100.00;99187.56;6141268;23;20841;-78
2023/11/29 06:17:52;;;;;;;13.73;7.13;;;;;;;0.08;100.00;99191.88;6136326;23;20029;-80
2023/11/29 06:20:21;;;;;;;10.95;7.00;;;;;;;0.06;100.00;99187.56;6139471;23;20428;-78
2023/11/29 06:22:48;;;;;;;15.55;6.53;;;;;;;0.10;100.00;99191.91;6116640;23;20021;-77
2023/11/29 06:25:14;;;;;;;13.05;7.25;;;;;;;0.13;100.00;99182.50;6143527;23;20396;-78
2023/11/29 06:27:45;;;;;;;11.00;6.93;;;;;;;0.09;100.00;99175.59;6114962;23;20029;-78
2023/11/29 06:30:12;;;;;;;10.52;7.40;;;;;;;0.10;100.00;99181.59;6140210;23;20084;-78
2023/11/29 06:32:41;;;;;;;9.85;6.72;;;;;;;0.07;100.00;99177.28;6140459;23;20052;-77
2023/11/29 06:35:11;;;;;;;11.45;7.72;;;;;;;0.16;100.00;99179.09;6143008;23;20092;-78
2023/11/29 06:37:37;;;;;;;14.75;7.80;;;;;;;0.08;100.00;99173.88;6142336;23;20044;-80
2023/11/29 06:40:04;;;;;;;13.00;7.07;;;;;;;0.12;100.00;99175.63;6141694;23;20013;-79
2023/11/29 06:42:31;;;;;;;11.77;7.05;;;;;;;0.18;100.00;99168.81;6144220;23;20017;-80
2023/11/29 06:44:57;;;;;;;9.82;6.45;;;;;;;0.20;100.00;99182.56;6141342;23;20045;-79
2023/11/29 06:47:24;;;;;;;14.52;6.72;;;;;;;0.23;100.00;99177.44;6142149;23;20100;-78
2023/11/29 06:49:51;;;;;;;10.18;8.18;;;;;;;0.24;100.00;99176.59;6140133;23;20032;-78
2023/11/29 06:52:18;;;;;;;10.43;6.10;;;;;;;0.27;100.00;99174.88;6148842;23;20033;-80
2023/11/29 06:54:45;;;;;;;10.18;6.50;;;;;;;0.31;100.00;99170.63;6125610;23;20018;-78
2023/11/29 06:57:17;;;;;;;8.95;5.30;;;;;;;0.34;100.00;99180.97;6153100;23;20018;-80
2023/11/29 06:59:47;;;;;;;9.38;5.95;;;;;;;0.38;100.00;99179.28;6144816;23;20014;-77
2023/11/29 07:02:14;;;;;;;11.27;7.53;;;;;;;0.39;100.00;99175.84;6148151;23;20040;-78
2023/11/29 07:04:45;;;;;;;12.73;6.60;;;;;;;0.36;100.00;99184.41;6118207;23;20080;-80
2023/11/29 07:07:12;;;;;;;11.82;6.97;;;;;;;0.38;100.00;99184.41;6144347;23;20021;-81
2023/11/29 07:09:38;;;;;;;11.60;6.38;;;;;;;0.37;100.00;99183.56;6139194;23;20025;-80
2023/11/29 07:12:06;;;;;;;12.98;6.60;;;;;;;0.40;100.00;99190.44;6142098;23;20018;-79
2023/11/29 07:14:32;;;;;;;9.25;6.22;;;;;;;0.40;100.00;99187.88;6142077;23;20018;-78
2023/11/29 07:16:59;;;;;;;14.10;6.07;;;;;;;0.38;100.00;99182.72;6116877;23;20036;-79
2023/11/29 07:19:28;;;;;;;10.73;5.47;;;;;;;0.40;100.00;99187.88;6142027;23;20044;-79
2023/11/29 07:21:54;;;;;;;12.05;6.07;;;;;;;0.46;100.00;99175.06;6117950;23;20029;-80
2023/11/29 07:24:21;;;;;;;10.15;6.95;;;;;;;0.47;100.00;99182.78;6143726;23;20056;-79
2023/11/29 07:26:48;;;;;;;11.18;6.85;;;;;;;0.44;100.00;99169.91;6141895;23;20024;-78
2023/11/29 07:29:15;;;;;;;9.88;7.00;;;;;;;0.45;100.00;99170.75;6144064;23;20503;-81
2023/11/29 07:31:48;;;;;;;11.60;6.25;;;;;;;0.46;100.00;99175.91;6117392;23;20021;-80
2023/11/29 07:34:14;;;;;;;13.07;7.50;;;;;;;0.53;100.00;99176.81;6142601;23;20017;-78
2023/11/29 07:36:49;;;;;;;10.43;6.43;;;;;;;0.52;100.00;99171.66;6141099;23;20048;-76
2023/11/29 07:39:16;;;;;;;10.77;6.38;;;;;;;0.58;100.00;99180.28;6117571;23;20396;-78
2023/11/29 07:41:42;;;;;;;9.88;7.07;;;;;;;0.61;100.00;99179.47;6142367;23;20036;-80
2023/11/29 07:44:09;;;;;;;9.63;5.70;;;;;;;0.65;100.00;99181.19;6119204;23;20028;-77
2023/11/29 07:46:38;;;;;;;8.63;5.45;;;;;;;0.64;100.00;99182.94;6143997;23;20018;-79
2023/11/29 07:49:05;;;;;;;9.57;5.70;;;;;;;0.62;100.00;99176.88;6142769;23;20029;-79
2023/11/29 07:51:31;;;;;;;7.80;5.95;;;;;;;0.65;100.00;99183.78;6146787;23;20014;-79
2023/11/29 07:53:58;;;;;;;9.82;6.45;;;;;;;0.57;100.00;99170.00;6146003;23;20145;-79
2023/11/29 07:56:25;;;;;;;8.70;6.53;;;;;;;0.56;100.00;99184.59;6151445;23;20472;-78
2023/11/29 07:58:51;;;;;;;6.72;4.82;;;;;;;0.55;100.00;99166.53;6153433;23;20017;-81
2023/11/29 08:01:18;;;;;;;6.63;5.15;;;;;;;0.59;100.00;99169.16;6156018;23;20028;-77
2023/11/29 08:03:44;;;;;;;9.50;5.70;;;;;;;0.53;100.00;99174.25;6124240;23;20051;-77
2023/11/29 08:06:13;;;;;;;8.73;5.57;;;;;;;0.62;100.00;99171.75;6150920;23;20021;-80
2023/11/29 08:08:39;;;;;;;8.07;5.10;;;;;;;0.63;100.00;99175.19;6117759;23;20049;-80
2023/11/29 08:11:06;;;;;;;9.07;5.50;;;;;;;0.60;100.00;99165.72;6118713;23;20555;-77
2023/11/29 08:13:33;;;;;;;13.70;5.68;;;;;;;0.59;100.00;99168.31;6141947;23;20479;-78
2023/11/29 08:15:59;;;;;;;8.05;5.25;;;;;;;0.58;100.00;99172.56;6142570;23;20083;-78
2023/11/29 08:18:26;;;;;;;6.32;5.10;;;;;;;0.62;100.00;99174.31;6144441;23;20548;-79
2023/11/29 08:20:53;;;;;;;8.02;5.70;;;;;;;0.68;100.00;99168.38;6145374;23;20037;-78
2023/11/29 08:23:19;;;;;;;9.13;5.45;;;;;;;0.71;100.00;99164.94;6144241;23;20025;-78
2023/11/29 08:25:47;;;;;;;13.93;7.28;;;;;;;0.73;100.00;99170.97;6118985;23;20477;-77
2023/11/29 08:28:13;;;;;;;9.32;6.15;;;;;;;0.79;100.00;99168.44;6142780;23;20018;-79
2023/11/29 08:30:40;;;;;;;12.68;6.38;;;;;;;0.89;100.00;99159.91;6143064;23;20032;-81
2023/11/29 08:33:08;;;;;;;8.90;6.78;;;;;;;0.92;100.00;99156.50;6143129;23;20096;-80
2023/11/29 08:35:34;;;;;;;11.05;6.47;;;;;;;0.95;100.00;99156.50;6118905;23;20853;-77
2023/11/29 08:38:01;;;;;;;9.98;6.07;;;;;;;0.88;100.00;99165.91;6142397;23;20094;-78
2023/11/29 08:40:28;;;;;;;9.82;5.80;;;;;;;0.97;100.00;99158.22;6143590;23;20018;-81
2023/11/29 08:42:54;;;;;;;7.57;5.60;;;;;;;1.02;100.00;99158.28;6144199;23;20101;-77
2023/11/29 08:45:21;;;;;;;11.95;6.00;;;;;;;1.06;100.00;99154.00;6122134;23;20026;-77
2023/11/29 08:47:47;;;;;;;8.43;5.68;;;;;;;1.14;100.00;99155.75;6145983;23;20059;-78
2023/11/29 08:50:14;;;;;;;8.45;6.55;;;;;;;1.24;100.00;99161.81;6120293;23;20017;-78
2023/11/29 08:52:44;;;;;;;8.18;6.13;;;;;;;1.15;100.00;99154.03;6145467;23;20022;-80
2023/11/29 08:55:11;;;;;;;14.60;6.70;;;;;;;1.11;100.00;99154.88;6122425;23;20436;-77
2023/11/29 08:57:37;;;;;;;8.65;5.63;;;;;;;1.13;100.00;99158.31;6145386;23;20554;-78
2023/11/29 09:00:05;;;;;;;7.95;6.00;;;;;;;1.13;100.00;99156.63;6119796;23;20029;-79
2023/11/29 09:02:31;;;;;;;7.15;5.97;;;;;;;1.08;100.00;99152.28;6146314;23;20085;-80
2023/11/29 09:04:58;;;;;;;8.65;6.18;;;;;;;1.09;100.00;99147.13;6121084;23;20032;-77
2023/11/29 09:07:25;;;;;;;10.82;6.35;;;;;;;1.09;100.00;99146.28;6144186;23;20029;-79
2023/11/29 09:09:56;;;;;;;8.95;6.70;;;;;;;1.09;100.00;99135.97;6144565;23;20021;-80
2023/11/29 09:12:25;;;;;;;10.27;6.47;;;;;;;1.11;100.00;99142.00;6149697;23;20021;-79
2023/11/29 09:14:56;;;;;;;8.10;5.65;;;;;;;1.10;100.00;99142.84;6150088;23;20016;-79
2023/11/29 09:17:26;;;;;;;8.40;5.88;;;;;;;1.11;100.00;99142.00;6125435;23;20021;-77
2023/11/29 09:19:54;;;;;;;7.45;5.45;;;;;;;1.05;100.00;99137.66;6149411;23;20096;-80
2023/11/29 09:22:22;;;;;;;10.00;5.63;;;;;;;1.04;100.00;99140.22;6150785;23;20017;-77
2023/11/29 09:24:50;;;;;;;7.05;5.03;;;;;;;1.05;100.00;99134.25;6149673;23;20083;-81
2023/11/29 09:27:18;;;;;;;8.25;5.65;;;;;;;1.04;100.00;99127.34;6148727;23;20055;-78
2023/11/29 09:29:44;;;;;;;9.00;5.72;;;;;;;1.02;100.00;99137.66;6148441;23;20017;-78
2023/11/29 09:32:11;;;;;;;10.20;6.30;;;;;;;1.02;100.00;99132.50;6150872;23;20313;-77
2023/11/29 09:34:37;;;;;;;13.60;6.80;;;;;;;1.11;100.00;99132.53;6149756;23;20020;-77
2023/11/29 09:37:05;;;;;;;7.72;5.47;;;;;;;1.03;100.00;99136.81;6148366;23;20095;-77
2023/11/29 09:39:34;;;;;;;8.13;5.95;;;;;;;0.97;100.00;99140.19;6148690;23;20080;-79
2023/11/29 09:42:03;;;;;;;8.25;5.43;;;;;;;0.91;100.00;99132.44;6149351;23;20017;-77
2023/11/29 09:44:36;;;;;;;8.90;5.53;;;;;;;0.87;100.00;99135.00;6149968;23;20025;-78
2023/11/29 09:47:03;;;;;;;9.40;6.07;;;;;;;0.86;100.00;99126.41;6149962;23;20028;-79
2023/11/29 09:49:32;;;;;;;8.68;5.97;;;;;;;0.87;100.00;99125.53;6122827;23;20104;-78
2023/11/29 09:51:59;;;;;;;11.05;6.65;;;;;;;0.86;100.00;99128.09;6150456;23;20079;-77
2023/11/29 09:54:26;;;;;;;7.47;5.63;;;;;;;0.91;100.00;99129.00;6149217;23;20025;-78
2023/11/29 09:56:52;;;;;;;9.15;5.85;;;;;;;0.91;100.00;99132.44;6147849;23;20107;-77
2023/11/29 09:59:21;;;;;;;9.88;6.30;;;;;;;0.99;100.00;99125.63;6148103;23;20067;-78
2023/11/29 10:01:48;;;;;;;10.40;6.80;;;;;;;0.96;100.00;99127.31;6147849;23;20021;-80
2023/11/29 10:04:15;;;;;;;12.25;6.38;;;;;;;0.98;100.00;99126.47;6123018;23;20027;-82
2023/11/29 10:06:42;;;;;;;9.32;6.45;;;;;;;0.93;100.00;99123.00;6149489;23;20021;-80
2023/11/29 10:09:11;;;;;;;7.90;5.75;;;;;;;0.95;100.00;99121.31;6147905;23;20490;-79
2023/11/29 10:11:38;;;;;;;8.23;6.18;;;;;;;0.99;100.00;99122.16;6145556;23;20025;-79
2023/11/29 10:14:05;;;;;;;9.07;6.70;;;;;;;1.01;100.00;99117.03;6147864;23;20032;-79
2023/11/29 10:16:33;;;;;;;12.90;7.63;;;;;;;1.01;100.00;99119.63;6142148;23;20017;-82
2023/11/29 10:19:06;;;;;;;10.77;7.00;;;;;;;0.92;100.00;99110.97;6157316;23;20049;-79
2023/11/29 10:21:33;;;;;;;11.25;6.57;;;;;;;0.95;100.00;99111.00;6154004;23;20023;-81
2023/11/29 10:23:59;;;;;;;9.40;5.88;;;;;;;1.01;100.00;99107.59;6152406;23;20016;-80
2023/11/29 10:26:28;;;;;;;11.98;7.07;;;;;;;1.02;100.00;99106.72;6127077;23;20056;-81
2023/11/29 10:28:54;;;;;;;6.80;5.25;;;;;;;1.00;100.00;99108.44;6123468;23;20625;-77
2023/11/29 10:31:22;;;;;;;6.78;5.35;;;;;;;1.07;100.00;99106.75;6149634;23;20021;-79
2023/11/29 10:33:51;;;;;;;9.00;5.70;;;;;;;0.98;100.00;99098.13;6122905;23;20016;-77
2023/11/29 10:36:20;;;;;;;8.02;5.68;;;;;;;1.04;100.00;99096.44;6149888;23;20439;-78
2023/11/29 10:39:05;;;;;;;7.07;5.88;;;;;;;1.02;100.00;99099.00;6147462;23;20021;-79
2023/11/29 10:41:49;;;;;;;7.32;5.10;;;;;;;0.90;100.00;99111.81;6175695;23;20538;-81
2023/11/29 10:44:19;;;;;;;9.43;6.20;;;;;;;0.78;100.00;99095.47;6151626;23;20017;-80
2023/11/29 10:46:47;;;;;;;9.25;6.57;;;;;;;0.83;100.00;99110.91;6150659;23;20027;-79
2023/11/29 10:49:17;;;;;;;10.23;6.47;;;;;;;0.86;100.00;99113.53;6124575;23;20020;-80
2023/11/29 10:51:48;;;;;;;8.60;5.28;;;;;;;0.93;100.00;99104.13;6174490;23;20620;-80
2023/11/29 10:54:18;;;;;;;7.05;5.90;;;;;;;0.87;100.00;99102.34;6125342;23;20435;-82
2023/11/29 10:56:48;;;;;;;8.13;5.38;;;;;;;0.92;100.00;99103.25;6148801;23;20534;-77
2023/11/29 10:59:26;;;;;;;8.27;5.95;;;;;;;0.91;100.00;99108.38;6123557;23;20020;-78
2023/11/29 11:01:57;;;;;;;18.20;7.07;;;;;;;0.94;100.00;99098.09;6150163;23;20021;-78
2023/11/29 11:04:44;;;;;;;7.20;4.68;;;;;;;0.85;100.00;99098.94;6149580;23;20021;-77
2023/11/29 11:07:40;;;;;;;7.75;5.20;;;;;;;0.78;100.00;99100.59;6124174;23;20024;-76
2023/11/29 11:10:14;;;;;;;5.82;5.10;;;;;;;0.82;100.00;99093.72;6147166;23;20024;-79
2023/11/29 11:12:42;;;;;;;6.50;4.77;;;;;;;0.81;100.00;99099.75;6123129;23;20013;-78
2023/11/29 11:15:20;;;;;;;7.82;5.60;;;;;;;0.81;100.00;99095.47;6174246;23;20241;-77
2023/11/29 11:18:16;;;;;;;6.68;5.47;;;;;;;0.88;100.00;99087.78;6171803;23;20017;-78
2023/11/29 11:20:55;;;;;;;5.90;4.38;;;;;;;0.90;100.00;99092.06;6143872;23;20108;-78
2023/11/29 11:23:30;;;;;;;5.93;4.75;;;;;;;0.81;100.00;99092.88;6148612;23;20050;-80
2023/11/29 11:25:58;;;;;;;9.00;5.22;;;;;;;0.81;100.00;99087.72;6121707;23;20068;-80
2023/11/29 11:28:34;;;;;;;5.88;4.30;;;;;;;0.86;100.00;99085.19;6121481;23;20102;-78